AFR872 HAAB-LFPG
Flight info
| Callsign | AFR872 |
|---|---|
| Flight time | N/A |
| Altitude | 36000 |
| Route | LABL3A LABLA UT124 ALRAP/N0499F350 DCT KSL DCT PSD/N0495F360 P751 METRU DCT KRK/N0477F380 UL53 OLGAT DCT AIOSA DCT BAXON DCT RIXUV DCT PUNSA DCT UNKIR UM982 TINIL TINI9X |
| Aircraft | B77W/H-SDE1E2E3FGHIJ2J3J4J5M1RWXYZ/LB1D1 |
Departure
| Time | N/A |
|---|---|
| Airport | Addis Ababa Bole International Airport (HAAB) |
Arrival
| Time | 2026-05-05 17:46 |
|---|---|
| Airport | Charles de Gaulle International Airport (LFPG) |
| Time | Latitude | Longitude | Altitude | Speed | Heading |
|---|---|---|---|---|---|
| 2026-05-05 11:18 | 13.43508 | 36.34837 | 33714 ft | 494 kts | 332° |
| 2026-05-05 11:19 | 13.46547 | 36.33247 | 33712 ft | 494 kts | 332° |
| 2026-05-05 11:19 | 13.52648 | 36.30054 | 33710 ft | 494 kts | 332° |
| 2026-05-05 11:20 | 13.58767 | 36.26849 | 33707 ft | 494 kts | 332° |
| 2026-05-05 11:20 | 13.65050 | 36.24040 | 33703 ft | 496 kts | 344° |
| 2026-05-05 11:21 | 13.71892 | 36.23096 | 33706 ft | 499 kts | 0° |
| 2026-05-05 11:21 | 13.78831 | 36.23531 | 33704 ft | 500 kts | 3° |
| 2026-05-05 11:22 | 13.85779 | 36.24055 | 33701 ft | 500 kts | 3° |
| 2026-05-05 11:22 | 13.92714 | 36.24525 | 33707 ft | 499 kts | 2° |
| 2026-05-05 11:23 | 13.99650 | 36.24958 | 33704 ft | 500 kts | 2° |
| 2026-05-05 11:23 | 14.06591 | 36.25381 | 33697 ft | 500 kts | 2° |
| 2026-05-05 11:24 | 14.13533 | 36.25806 | 33715 ft | 500 kts | 2° |
| 2026-05-05 11:24 | 14.20498 | 36.26234 | 33701 ft | 500 kts | 2° |
| 2026-05-05 11:25 | 14.27397 | 36.26660 | 33704 ft | 500 kts | 2° |
| 2026-05-05 11:25 | 14.34375 | 36.27091 | 33703 ft | 499 kts | 2° |
| 2026-05-05 11:26 | 14.41311 | 36.27520 | 33698 ft | 500 kts | 2° |
| 2026-05-05 11:26 | 14.48222 | 36.27947 | 33690 ft | 500 kts | 2° |
| 2026-05-05 11:27 | 14.55161 | 36.28377 | 33696 ft | 500 kts | 2° |
| 2026-05-05 11:27 | 14.62102 | 36.28807 | 33706 ft | 501 kts | 2° |
| 2026-05-05 11:28 | 14.69062 | 36.29238 | 33700 ft | 501 kts | 2° |
| 2026-05-05 11:28 | 14.76035 | 36.29670 | 33698 ft | 501 kts | 2° |
| 2026-05-05 11:29 | 14.82983 | 36.30102 | 33696 ft | 501 kts | 2° |
| 2026-05-05 11:29 | 14.89953 | 36.30534 | 33703 ft | 501 kts | 2° |
| 2026-05-05 11:30 | 14.96918 | 36.30967 | 33697 ft | 502 kts | 1° |
| 2026-05-05 11:30 | 15.03912 | 36.31402 | 33711 ft | 503 kts | 2° |
| 2026-05-05 11:31 | 15.10885 | 36.31835 | 33706 ft | 503 kts | 2° |
| 2026-05-05 11:31 | 15.17885 | 36.32271 | 33705 ft | 503 kts | 1° |
| 2026-05-05 11:32 | 15.24862 | 36.32706 | 33711 ft | 503 kts | 1° |
| 2026-05-05 11:32 | 15.31849 | 36.33141 | 33714 ft | 504 kts | 1° |
| 2026-05-05 11:33 | 15.38846 | 36.33581 | 33718 ft | 504 kts | 2° |
| 2026-05-05 11:33 | 15.45742 | 36.34671 | 33721 ft | 506 kts | 10° |
| 2026-05-05 11:34 | 15.52640 | 36.36252 | 33719 ft | 507 kts | 11° |
| 2026-05-05 11:34 | 15.59517 | 36.37838 | 33720 ft | 507 kts | 11° |
| 2026-05-05 11:35 | 15.66406 | 36.39390 | 33724 ft | 507 kts | 10° |
| 2026-05-05 11:35 | 15.73309 | 36.40926 | 33733 ft | 507 kts | 10° |
| 2026-05-05 11:36 | 15.80202 | 36.42456 | 33728 ft | 507 kts | 10° |
| 2026-05-05 11:36 | 15.87107 | 36.43993 | 33733 ft | 507 kts | 10° |
| 2026-05-05 11:37 | 15.94007 | 36.45531 | 33728 ft | 507 kts | 10° |
| 2026-05-05 11:37 | 16.00922 | 36.47073 | 33730 ft | 508 kts | 10° |
| 2026-05-05 11:38 | 16.07820 | 36.48613 | 33730 ft | 508 kts | 10° |
| 2026-05-05 11:38 | 16.14736 | 36.50159 | 33736 ft | 508 kts | 10° |
| 2026-05-05 11:39 | 16.21662 | 36.51707 | 33733 ft | 509 kts | 10° |
| 2026-05-05 11:39 | 16.28582 | 36.53255 | 33736 ft | 509 kts | 10° |
| 2026-05-05 11:40 | 16.35497 | 36.54803 | 33738 ft | 509 kts | 10° |
| 2026-05-05 11:40 | 16.42430 | 36.56357 | 33741 ft | 509 kts | 10° |
| 2026-05-05 11:41 | 16.49347 | 36.57908 | 33744 ft | 509 kts | 10° |
| 2026-05-05 11:41 | 16.56279 | 36.59463 | 33747 ft | 509 kts | 10° |
| 2026-05-05 11:42 | 16.63197 | 36.61016 | 33752 ft | 509 kts | 10° |
| 2026-05-05 11:42 | 16.70118 | 36.62571 | 33752 ft | 509 kts | 10° |
| 2026-05-05 11:43 | 16.77042 | 36.64128 | 33756 ft | 509 kts | 9° |
| 2026-05-05 11:43 | 16.83972 | 36.65688 | 33763 ft | 510 kts | 9° |
| 2026-05-05 11:44 | 16.90873 | 36.67242 | 33764 ft | 510 kts | 9° |
| 2026-05-05 11:44 | 16.97798 | 36.68802 | 33766 ft | 510 kts | 9° |
| 2026-05-05 11:45 | 17.04754 | 36.70371 | 33773 ft | 510 kts | 9° |
| 2026-05-05 11:45 | 17.11675 | 36.71934 | 33771 ft | 509 kts | 9° |
| 2026-05-05 11:46 | 17.18606 | 36.73500 | 33778 ft | 510 kts | 9° |
| 2026-05-05 11:46 | 17.25573 | 36.75074 | 33789 ft | 513 kts | 9° |
| 2026-05-05 11:47 | 17.32557 | 36.76653 | 33782 ft | 514 kts | 9° |
| 2026-05-05 11:47 | 17.39550 | 36.78237 | 33788 ft | 514 kts | 9° |
| 2026-05-05 11:48 | 17.50029 | 36.80613 | 33791 ft | 515 kts | 9° |
| 2026-05-05 11:48 | 17.57043 | 36.82203 | 33797 ft | 515 kts | 9° |
| 2026-05-05 11:49 | 17.64028 | 36.83791 | 33789 ft | 512 kts | 9° |
| 2026-05-05 11:49 | 17.70973 | 36.85369 | 33796 ft | 510 kts | 9° |
| 2026-05-05 11:50 | 17.77908 | 36.86945 | 33808 ft | 511 kts | 9° |
| 2026-05-05 11:50 | 17.84885 | 36.88531 | 33815 ft | 514 kts | 9° |
| 2026-05-05 11:51 | 17.91883 | 36.90126 | 33828 ft | 514 kts | 9° |
| 2026-05-05 11:51 | 17.98882 | 36.91721 | 33835 ft | 514 kts | 9° |
| 2026-05-05 11:52 | 18.05858 | 36.93313 | 33844 ft | 514 kts | 9° |
| 2026-05-05 11:52 | 18.12811 | 36.94900 | 33851 ft | 514 kts | 9° |
| 2026-05-05 11:53 | 18.19840 | 36.96507 | 33860 ft | 515 kts | 9° |
| 2026-05-05 11:53 | 18.26805 | 36.98100 | 33865 ft | 515 kts | 9° |
| 2026-05-05 11:54 | 18.33818 | 36.99704 | 33873 ft | 516 kts | 9° |
| 2026-05-05 11:54 | 18.40840 | 37.01313 | 33888 ft | 516 kts | 8° |
| 2026-05-05 11:55 | 18.47854 | 37.02921 | 33875 ft | 516 kts | 8° |
| 2026-05-05 11:55 | 18.54895 | 37.04537 | 33882 ft | 517 kts | 8° |
| 2026-05-05 11:56 | 18.61925 | 37.06151 | 33893 ft | 518 kts | 8° |
| 2026-05-05 11:56 | 18.68959 | 37.07768 | 33885 ft | 518 kts | 8° |
| 2026-05-05 11:57 | 18.76003 | 37.09389 | 33892 ft | 518 kts | 8° |
| 2026-05-05 11:57 | 18.83043 | 37.11010 | 33879 ft | 518 kts | 8° |
| 2026-05-05 11:58 | 18.88886 | 37.12356 | 33883 ft | 518 kts | 8° |
| 2026-05-05 11:58 | 18.95938 | 37.13982 | 33886 ft | 519 kts | 8° |
| 2026-05-05 11:59 | 19.02989 | 37.15610 | 33901 ft | 518 kts | 8° |
| 2026-05-05 11:59 | 19.10043 | 37.17239 | 33875 ft | 519 kts | 8° |
| 2026-05-05 12:00 | 19.17075 | 37.18865 | 33882 ft | 519 kts | 8° |
| 2026-05-05 12:00 | 19.24139 | 37.20500 | 33870 ft | 520 kts | 8° |
| 2026-05-05 12:01 | 19.31219 | 37.22140 | 33877 ft | 520 kts | 8° |
| 2026-05-05 12:01 | 19.38287 | 37.23140 | 33871 ft | 506 kts | 349° |
| 2026-05-05 12:02 | 19.41687 | 37.22487 | 33882 ft | 498 kts | 338° |
| 2026-05-05 12:02 | 19.44917 | 37.21133 | 33870 ft | 489 kts | 325° |
| 2026-05-05 12:02 | 19.50531 | 37.17268 | 33882 ft | 484 kts | 321° |
| 2026-05-05 12:03 | 19.56208 | 37.13331 | 33875 ft | 484 kts | 322° |
| 2026-05-05 12:03 | 19.61823 | 37.09502 | 33876 ft | 483 kts | 322° |
| 2026-05-05 12:04 | 19.67485 | 37.05665 | 33879 ft | 482 kts | 322° |
| 2026-05-05 12:04 | 19.73135 | 37.01836 | 33880 ft | 482 kts | 322° |
| 2026-05-05 12:05 | 19.78780 | 36.98003 | 33884 ft | 481 kts | 322° |
| 2026-05-05 12:05 | 19.84426 | 36.94165 | 33888 ft | 482 kts | 321° |
| 2026-05-05 12:06 | 19.90070 | 36.90326 | 33880 ft | 481 kts | 321° |
| 2026-05-05 12:06 | 19.95707 | 36.86488 | 33882 ft | 482 kts | 321° |
| 2026-05-05 12:07 | 20.01336 | 36.82651 | 33895 ft | 480 kts | 321° |
| 2026-05-05 12:07 | 20.06971 | 36.78808 | 33885 ft | 480 kts | 321° |
| 2026-05-05 12:08 | 20.12584 | 36.74976 | 33891 ft | 481 kts | 321° |
| 2026-05-05 12:08 | 20.18182 | 36.71151 | 33883 ft | 481 kts | 321° |
| 2026-05-05 12:09 | 20.23813 | 36.67300 | 33880 ft | 480 kts | 321° |
| 2026-05-05 12:09 | 20.29468 | 36.63429 | 33874 ft | 480 kts | 321° |
| 2026-05-05 12:10 | 20.35041 | 36.59611 | 33878 ft | 480 kts | 321° |
| 2026-05-05 12:10 | 20.40669 | 36.55750 | 33878 ft | 482 kts | 321° |
| 2026-05-05 12:11 | 20.46321 | 36.51873 | 33874 ft | 481 kts | 321° |
| 2026-05-05 12:11 | 20.51956 | 36.48003 | 33859 ft | 483 kts | 320° |
| 2026-05-05 12:12 | 20.57590 | 36.44129 | 33850 ft | 481 kts | 320° |
| 2026-05-05 12:12 | 20.63217 | 36.40257 | 33856 ft | 481 kts | 320° |
| 2026-05-05 12:13 | 20.68854 | 36.36373 | 33855 ft | 482 kts | 320° |
| 2026-05-05 12:13 | 20.74485 | 36.32492 | 33842 ft | 482 kts | 320° |
| 2026-05-05 12:14 | 20.80107 | 36.28614 | 33846 ft | 481 kts | 320° |
| 2026-05-05 12:14 | 20.85729 | 36.24731 | 33850 ft | 481 kts | 320° |
| 2026-05-05 12:15 | 20.91363 | 36.20835 | 33851 ft | 482 kts | 320° |
| 2026-05-05 12:15 | 20.97005 | 36.16930 | 33849 ft | 482 kts | 320° |
| 2026-05-05 12:16 | 21.02602 | 36.13054 | 33852 ft | 482 kts | 320° |
| 2026-05-05 12:16 | 21.08273 | 36.09121 | 33863 ft | 483 kts | 320° |
| 2026-05-05 12:17 | 21.13869 | 36.05237 | 33857 ft | 482 kts | 320° |
| 2026-05-05 12:17 | 21.19533 | 36.01302 | 33862 ft | 481 kts | 320° |
| 2026-05-05 12:18 | 21.25106 | 35.97430 | 33860 ft | 481 kts | 320° |
| 2026-05-05 12:18 | 21.30728 | 35.93516 | 33865 ft | 482 kts | 320° |
| 2026-05-05 12:19 | 21.36346 | 35.89602 | 33873 ft | 481 kts | 319° |
| 2026-05-05 12:19 | 21.41943 | 35.85700 | 33863 ft | 481 kts | 319° |
| 2026-05-05 12:20 | 21.47554 | 35.81784 | 33867 ft | 481 kts | 319° |
| 2026-05-05 12:20 | 21.53157 | 35.77870 | 33872 ft | 480 kts | 319° |
| 2026-05-05 12:21 | 21.58740 | 35.73967 | 34240 ft | 480 kts | 319° |
| 2026-05-05 12:21 | 21.61534 | 35.72013 | 34576 ft | 477 kts | 319° |
| 2026-05-05 12:21 | 21.64345 | 35.70048 | 34928 ft | 475 kts | 319° |
| 2026-05-05 12:22 | 21.67062 | 35.68146 | 35217 ft | 473 kts | 319° |
| 2026-05-05 12:22 | 21.69820 | 35.66213 | 35473 ft | 473 kts | 319° |
| 2026-05-05 12:22 | 21.72581 | 35.64275 | 35680 ft | 473 kts | 319° |
| 2026-05-05 12:22 | 21.75336 | 35.62342 | 35809 ft | 474 kts | 319° |
| 2026-05-05 12:23 | 21.80863 | 35.58462 | 35895 ft | 473 kts | 319° |
| 2026-05-05 12:23 | 21.86365 | 35.54598 | 35896 ft | 472 kts | 319° |
| 2026-05-05 12:24 | 21.91840 | 35.50748 | 35901 ft | 470 kts | 318° |
| 2026-05-05 12:24 | 21.97325 | 35.46886 | 35901 ft | 471 kts | 318° |
| 2026-05-05 12:25 | 22.02814 | 35.43032 | 35907 ft | 471 kts | 319° |
| 2026-05-05 12:25 | 22.08328 | 35.39204 | 35908 ft | 472 kts | 319° |
| 2026-05-05 12:26 | 22.13865 | 35.35363 | 35916 ft | 472 kts | 319° |
| 2026-05-05 12:26 | 22.19379 | 35.31530 | 35921 ft | 471 kts | 319° |
| 2026-05-05 12:27 | 22.24884 | 35.27692 | 35920 ft | 472 kts | 319° |
| 2026-05-05 12:27 | 22.30387 | 35.23852 | 35931 ft | 472 kts | 319° |
| 2026-05-05 12:28 | 22.35870 | 35.20024 | 35922 ft | 471 kts | 318° |
| 2026-05-05 12:28 | 22.41384 | 35.16169 | 35931 ft | 472 kts | 318° |
| 2026-05-05 12:29 | 22.46923 | 35.12293 | 35922 ft | 473 kts | 318° |
| 2026-05-05 12:29 | 22.52421 | 35.08442 | 35919 ft | 473 kts | 318° |
| 2026-05-05 12:30 | 22.57940 | 35.04574 | 35917 ft | 473 kts | 318° |
| 2026-05-05 12:30 | 22.63454 | 35.00706 | 35920 ft | 472 kts | 318° |
| 2026-05-05 12:31 | 22.68950 | 34.96847 | 35917 ft | 471 kts | 318° |
| 2026-05-05 12:31 | 22.74464 | 34.92969 | 35924 ft | 472 kts | 318° |
| 2026-05-05 12:32 | 22.79951 | 34.89107 | 35908 ft | 472 kts | 318° |
| 2026-05-05 12:32 | 22.85462 | 34.85225 | 35911 ft | 472 kts | 318° |
| 2026-05-05 12:33 | 22.90965 | 34.81345 | 35918 ft | 471 kts | 318° |
| 2026-05-05 12:33 | 22.96465 | 34.77463 | 35921 ft | 471 kts | 318° |
| 2026-05-05 12:34 | 23.01956 | 34.73584 | 35920 ft | 471 kts | 318° |
| 2026-05-05 12:34 | 23.07450 | 34.69699 | 35922 ft | 471 kts | 317° |
| 2026-05-05 12:35 | 23.12939 | 34.65813 | 35926 ft | 471 kts | 317° |
| 2026-05-05 12:35 | 23.18388 | 34.61951 | 35924 ft | 471 kts | 317° |
| 2026-05-05 12:36 | 23.23909 | 34.58036 | 35928 ft | 471 kts | 317° |
| 2026-05-05 12:36 | 23.29354 | 34.54170 | 35935 ft | 471 kts | 317° |
| 2026-05-05 12:37 | 23.34876 | 34.50244 | 35932 ft | 471 kts | 317° |
| 2026-05-05 12:37 | 23.40326 | 34.46367 | 35939 ft | 471 kts | 317° |
| 2026-05-05 12:38 | 23.45792 | 34.42476 | 35937 ft | 470 kts | 317° |
| 2026-05-05 12:38 | 23.51276 | 34.38565 | 35935 ft | 470 kts | 317° |
| 2026-05-05 12:39 | 23.56753 | 34.34656 | 35935 ft | 470 kts | 317° |
| 2026-05-05 12:39 | 23.62216 | 34.30754 | 35929 ft | 470 kts | 317° |
| 2026-05-05 12:40 | 23.67671 | 34.26854 | 35935 ft | 469 kts | 317° |
| 2026-05-05 12:40 | 23.73137 | 34.22940 | 35939 ft | 469 kts | 317° |
| 2026-05-05 12:41 | 23.78597 | 34.19027 | 35939 ft | 470 kts | 317° |
| 2026-05-05 12:41 | 23.84056 | 34.15117 | 35934 ft | 471 kts | 317° |
| 2026-05-05 12:42 | 23.89547 | 34.11212 | 35934 ft | 470 kts | 318° |
| 2026-05-05 12:42 | 23.95028 | 34.07314 | 35936 ft | 470 kts | 318° |
| 2026-05-05 12:43 | 24.00514 | 34.03405 | 35940 ft | 469 kts | 318° |
| 2026-05-05 12:43 | 24.05984 | 33.99499 | 35943 ft | 470 kts | 318° |
| 2026-05-05 12:44 | 24.11419 | 33.95613 | 35947 ft | 470 kts | 318° |
| 2026-05-05 12:44 | 24.16902 | 33.91690 | 35952 ft | 471 kts | 318° |
| 2026-05-05 12:45 | 24.22379 | 33.87768 | 35958 ft | 470 kts | 318° |
| 2026-05-05 12:45 | 24.27857 | 33.83841 | 35941 ft | 471 kts | 318° |
| 2026-05-05 12:46 | 24.33341 | 33.79906 | 35959 ft | 470 kts | 318° |
| 2026-05-05 12:46 | 24.38807 | 33.75978 | 35953 ft | 471 kts | 318° |
| 2026-05-05 12:47 | 24.44285 | 33.72038 | 35974 ft | 471 kts | 318° |
| 2026-05-05 12:47 | 24.49768 | 33.68091 | 35963 ft | 471 kts | 318° |
| 2026-05-05 12:48 | 24.54318 | 33.64812 | 35959 ft | 471 kts | 319° |
| 2026-05-05 12:48 | 24.59797 | 33.60859 | 35963 ft | 470 kts | 319° |
| 2026-05-05 12:49 | 24.65263 | 33.56912 | 35965 ft | 470 kts | 319° |
| 2026-05-05 12:49 | 24.70728 | 33.52962 | 35965 ft | 470 kts | 319° |
| 2026-05-05 12:50 | 24.76191 | 33.49008 | 35964 ft | 470 kts | 319° |
| 2026-05-05 12:50 | 24.81631 | 33.45067 | 35963 ft | 470 kts | 319° |
| 2026-05-05 12:51 | 24.87135 | 33.41075 | 35965 ft | 470 kts | 319° |
| 2026-05-05 12:51 | 24.92555 | 33.37140 | 35969 ft | 470 kts | 319° |
| 2026-05-05 12:52 | 24.98022 | 33.33167 | 35962 ft | 469 kts | 319° |
| 2026-05-05 12:52 | 25.03469 | 33.29204 | 35978 ft | 469 kts | 319° |
| 2026-05-05 12:53 | 25.08921 | 33.25231 | 35962 ft | 470 kts | 319° |
| 2026-05-05 12:53 | 25.14348 | 33.21274 | 35967 ft | 470 kts | 319° |
| 2026-05-05 12:54 | 25.22546 | 33.15288 | 35969 ft | 469 kts | 319° |
| 2026-05-05 12:55 | 25.28003 | 33.11304 | 35972 ft | 470 kts | 319° |
| 2026-05-05 12:55 | 25.33420 | 33.07350 | 35976 ft | 470 kts | 319° |
| 2026-05-05 12:56 | 25.38892 | 33.03349 | 35974 ft | 470 kts | 319° |
| 2026-05-05 12:56 | 25.44315 | 32.99379 | 35973 ft | 469 kts | 319° |
| 2026-05-05 12:57 | 25.49753 | 32.95393 | 35981 ft | 468 kts | 319° |
| 2026-05-05 12:57 | 25.55177 | 32.91412 | 35992 ft | 468 kts | 319° |
| 2026-05-05 12:58 | 25.60598 | 32.87430 | 35988 ft | 468 kts | 319° |
| 2026-05-05 12:58 | 25.66018 | 32.83443 | 35995 ft | 467 kts | 319° |
| 2026-05-05 12:59 | 25.71416 | 32.79462 | 35997 ft | 466 kts | 318° |
| 2026-05-05 12:59 | 25.76324 | 32.74891 | 36004 ft | 456 kts | 308° |
| 2026-05-05 13:00 | 25.82469 | 32.66923 | 35990 ft | 453 kts | 303° |
| 2026-05-05 13:01 | 25.90488 | 32.56136 | 35989 ft | 453 kts | 303° |
| 2026-05-05 13:01 | 25.94494 | 32.50783 | 35975 ft | 451 kts | 303° |
| 2026-05-05 13:02 | 25.98515 | 32.45405 | 35979 ft | 451 kts | 303° |
| 2026-05-05 13:02 | 26.02515 | 32.40048 | 35988 ft | 452 kts | 303° |
| 2026-05-05 13:03 | 26.06532 | 32.34662 | 35987 ft | 452 kts | 303° |
| 2026-05-05 13:03 | 26.10541 | 32.29282 | 35988 ft | 451 kts | 303° |
| 2026-05-05 13:04 | 26.14540 | 32.23908 | 35996 ft | 450 kts | 303° |
| 2026-05-05 13:04 | 26.18509 | 32.18567 | 36001 ft | 450 kts | 303° |
| 2026-05-05 13:05 | 26.22501 | 32.13187 | 35996 ft | 450 kts | 303° |
| 2026-05-05 13:05 | 26.26516 | 32.07773 | 35998 ft | 450 kts | 303° |
| 2026-05-05 13:06 | 26.30469 | 32.02435 | 35998 ft | 449 kts | 303° |
| 2026-05-05 13:06 | 26.34436 | 31.97072 | 36007 ft | 449 kts | 303° |
| 2026-05-05 13:07 | 26.38410 | 31.91692 | 35985 ft | 449 kts | 303° |
| 2026-05-05 13:07 | 26.42374 | 31.86320 | 35988 ft | 449 kts | 303° |
| 2026-05-05 13:08 | 26.46348 | 31.80927 | 35993 ft | 449 kts | 303° |
| 2026-05-05 13:08 | 26.50313 | 31.75542 | 36001 ft | 448 kts | 304° |
| 2026-05-05 13:09 | 26.54268 | 31.70163 | 36005 ft | 448 kts | 304° |
| 2026-05-05 13:09 | 26.58212 | 31.64792 | 36016 ft | 447 kts | 304° |
| 2026-05-05 13:10 | 26.62157 | 31.59413 | 36025 ft | 447 kts | 304° |
| 2026-05-05 13:10 | 26.66097 | 31.54035 | 36042 ft | 447 kts | 304° |
| 2026-05-05 13:11 | 26.70031 | 31.48659 | 36053 ft | 447 kts | 304° |
| 2026-05-05 13:11 | 26.73970 | 31.43269 | 36057 ft | 447 kts | 304° |
| 2026-05-05 13:12 | 26.77895 | 31.37892 | 36063 ft | 447 kts | 304° |
| 2026-05-05 13:12 | 26.81828 | 31.32496 | 36069 ft | 446 kts | 304° |
| 2026-05-05 13:13 | 26.85757 | 31.27100 | 36093 ft | 447 kts | 304° |
| 2026-05-05 13:13 | 26.89690 | 31.21692 | 36107 ft | 448 kts | 304° |
| 2026-05-05 13:14 | 26.93611 | 31.16295 | 36119 ft | 447 kts | 304° |
| 2026-05-05 13:14 | 26.97508 | 31.10922 | 36131 ft | 446 kts | 304° |
| 2026-05-05 13:15 | 27.01493 | 31.05527 | 36130 ft | 448 kts | 308° |
| 2026-05-05 13:15 | 27.06094 | 31.00763 | 36135 ft | 455 kts | 316° |
| 2026-05-05 13:16 | 27.11227 | 30.96644 | 36133 ft | 457 kts | 319° |
| 2026-05-05 13:16 | 27.16430 | 30.92565 | 36129 ft | 457 kts | 319° |
| 2026-05-05 13:17 | 27.21628 | 30.88460 | 36124 ft | 456 kts | 319° |
| 2026-05-05 13:17 | 27.26802 | 30.84344 | 36113 ft | 455 kts | 318° |
| 2026-05-05 13:18 | 27.31959 | 30.80225 | 36107 ft | 455 kts | 318° |
| 2026-05-05 13:18 | 27.37116 | 30.76101 | 36104 ft | 454 kts | 318° |
| 2026-05-05 13:19 | 27.42256 | 30.71987 | 36108 ft | 454 kts | 318° |
| 2026-05-05 13:19 | 27.47409 | 30.67858 | 36116 ft | 454 kts | 318° |
| 2026-05-05 13:20 | 27.52553 | 30.63732 | 36091 ft | 454 kts | 318° |
| 2026-05-05 13:20 | 27.57687 | 30.59609 | 36104 ft | 453 kts | 318° |
| 2026-05-05 13:21 | 27.62827 | 30.55476 | 36096 ft | 454 kts | 318° |
| 2026-05-05 13:21 | 27.67920 | 30.51376 | 36102 ft | 453 kts | 318° |
| 2026-05-05 13:22 | 27.73088 | 30.47212 | 36098 ft | 453 kts | 318° |
| 2026-05-05 13:22 | 27.78180 | 30.43103 | 36100 ft | 453 kts | 318° |
| 2026-05-05 13:23 | 27.83304 | 30.38964 | 36098 ft | 452 kts | 318° |
| 2026-05-05 13:23 | 27.88416 | 30.34829 | 36089 ft | 452 kts | 318° |
| 2026-05-05 13:24 | 27.93524 | 30.30693 | 36091 ft | 452 kts | 318° |
| 2026-05-05 13:24 | 27.98633 | 30.26551 | 36094 ft | 452 kts | 318° |
| 2026-05-05 13:25 | 28.03744 | 30.22402 | 36087 ft | 452 kts | 318° |
| 2026-05-05 13:25 | 28.08843 | 30.18259 | 36094 ft | 451 kts | 318° |
| 2026-05-05 13:26 | 28.13942 | 30.14110 | 36084 ft | 451 kts | 318° |
| 2026-05-05 13:26 | 28.19033 | 30.09963 | 36088 ft | 451 kts | 318° |
| 2026-05-05 13:27 | 28.24135 | 30.05802 | 36087 ft | 450 kts | 318° |
| 2026-05-05 13:27 | 28.29181 | 30.01681 | 36087 ft | 450 kts | 318° |
| 2026-05-05 13:28 | 28.34268 | 29.97522 | 36086 ft | 450 kts | 318° |
| 2026-05-05 13:28 | 28.39351 | 29.93363 | 36085 ft | 450 kts | 318° |
| 2026-05-05 13:29 | 28.44415 | 29.89213 | 36081 ft | 449 kts | 318° |
| 2026-05-05 13:29 | 28.49482 | 29.85055 | 36081 ft | 449 kts | 318° |
| 2026-05-05 13:30 | 28.54547 | 29.80893 | 36083 ft | 449 kts | 318° |
| 2026-05-05 13:30 | 28.59608 | 29.76731 | 36079 ft | 449 kts | 318° |
| 2026-05-05 13:31 | 28.64673 | 29.72560 | 36079 ft | 449 kts | 318° |
| 2026-05-05 13:31 | 28.69716 | 29.68402 | 36081 ft | 448 kts | 318° |
| 2026-05-05 13:32 | 28.74773 | 29.64227 | 36081 ft | 449 kts | 318° |
| 2026-05-05 13:32 | 28.79826 | 29.60051 | 36081 ft | 449 kts | 318° |
| 2026-05-05 13:33 | 28.84867 | 29.55880 | 36077 ft | 448 kts | 318° |
| 2026-05-05 13:33 | 28.89916 | 29.51697 | 36077 ft | 447 kts | 318° |
| 2026-05-05 13:34 | 28.94935 | 29.47532 | 36082 ft | 447 kts | 318° |
| 2026-05-05 13:34 | 28.99967 | 29.43352 | 36072 ft | 447 kts | 318° |
| 2026-05-05 13:35 | 29.04997 | 29.39169 | 36072 ft | 447 kts | 318° |
| 2026-05-05 13:35 | 29.10002 | 29.35000 | 36078 ft | 447 kts | 318° |
| 2026-05-05 13:36 | 29.15007 | 29.30794 | 36081 ft | 446 kts | 317° |
| 2026-05-05 13:36 | 29.19956 | 29.26517 | 36081 ft | 446 kts | 317° |
| 2026-05-05 13:37 | 29.24090 | 29.22932 | 36082 ft | 446 kts | 317° |
| 2026-05-05 13:37 | 29.29006 | 29.18679 | 36083 ft | 446 kts | 317° |
| 2026-05-05 13:38 | 29.33968 | 29.14387 | 36083 ft | 446 kts | 317° |
| 2026-05-05 13:38 | 29.38918 | 29.10101 | 36081 ft | 445 kts | 317° |
| 2026-05-05 13:39 | 29.43790 | 29.05872 | 36090 ft | 445 kts | 317° |
| 2026-05-05 13:39 | 29.48721 | 29.01562 | 36089 ft | 445 kts | 317° |
| 2026-05-05 13:40 | 29.53651 | 28.97242 | 36085 ft | 446 kts | 317° |
| 2026-05-05 13:40 | 29.58566 | 28.92930 | 36084 ft | 445 kts | 317° |
| 2026-05-05 13:41 | 29.63482 | 28.88615 | 36082 ft | 444 kts | 317° |
| 2026-05-05 13:41 | 29.68396 | 28.84296 | 36085 ft | 444 kts | 317° |
| 2026-05-05 13:42 | 29.73300 | 28.79980 | 36088 ft | 444 kts | 317° |
| 2026-05-05 13:42 | 29.78198 | 28.75664 | 36090 ft | 444 kts | 317° |
| 2026-05-05 13:43 | 29.83103 | 28.71337 | 36091 ft | 443 kts | 317° |
| 2026-05-05 13:43 | 29.87994 | 28.67017 | 36083 ft | 443 kts | 317° |
| 2026-05-05 13:44 | 29.92877 | 28.62698 | 36081 ft | 442 kts | 317° |
| 2026-05-05 13:44 | 29.97763 | 28.58371 | 36089 ft | 442 kts | 317° |
| 2026-05-05 13:45 | 30.02602 | 28.54079 | 36078 ft | 442 kts | 317° |
| 2026-05-05 13:45 | 30.07507 | 28.49724 | 36084 ft | 442 kts | 317° |
| 2026-05-05 13:46 | 30.12380 | 28.45392 | 36082 ft | 442 kts | 317° |
| 2026-05-05 13:46 | 30.17211 | 28.41092 | 36089 ft | 441 kts | 317° |
| 2026-05-05 13:47 | 30.22071 | 28.36761 | 36091 ft | 441 kts | 317° |
| 2026-05-05 13:47 | 30.26923 | 28.32431 | 36096 ft | 441 kts | 317° |
| 2026-05-05 13:48 | 30.31782 | 28.28089 | 36091 ft | 441 kts | 317° |
| 2026-05-05 13:48 | 30.36628 | 28.23754 | 36094 ft | 440 kts | 317° |
| 2026-05-05 13:49 | 30.41486 | 28.19401 | 36099 ft | 440 kts | 317° |
| 2026-05-05 13:49 | 30.46331 | 28.15055 | 36100 ft | 440 kts | 317° |
| 2026-05-05 13:50 | 30.51133 | 28.10743 | 36097 ft | 439 kts | 317° |
| 2026-05-05 13:50 | 30.55951 | 28.06409 | 36100 ft | 439 kts | 317° |
| 2026-05-05 13:51 | 30.60776 | 28.02064 | 36103 ft | 439 kts | 317° |
| 2026-05-05 13:51 | 30.65612 | 27.97703 | 36107 ft | 439 kts | 317° |
| 2026-05-05 13:52 | 30.70441 | 27.93343 | 36103 ft | 439 kts | 317° |
| 2026-05-05 13:52 | 30.75242 | 27.89003 | 36104 ft | 439 kts | 317° |
| 2026-05-05 13:53 | 30.80055 | 27.84646 | 36114 ft | 438 kts | 317° |
| 2026-05-05 13:53 | 30.84862 | 27.80289 | 36111 ft | 438 kts | 317° |
| 2026-05-05 13:54 | 30.89667 | 27.75928 | 36114 ft | 438 kts | 317° |
| 2026-05-05 13:54 | 30.94474 | 27.71559 | 36109 ft | 438 kts | 317° |
| 2026-05-05 13:55 | 30.99271 | 27.67194 | 36115 ft | 437 kts | 317° |
| 2026-05-05 13:55 | 31.04066 | 27.62824 | 36114 ft | 438 kts | 317° |
| 2026-05-05 13:56 | 31.08859 | 27.58451 | 36113 ft | 438 kts | 317° |
| 2026-05-05 13:56 | 31.13305 | 27.53672 | 36125 ft | 432 kts | 309° |
| 2026-05-05 13:57 | 31.17019 | 27.48197 | 36134 ft | 429 kts | 301° |
| 2026-05-05 13:57 | 31.20343 | 27.42405 | 36143 ft | 430 kts | 301° |
| 2026-05-05 13:58 | 31.23676 | 27.36600 | 36148 ft | 430 kts | 301° |
| 2026-05-05 13:58 | 31.27025 | 27.30812 | 36157 ft | 430 kts | 301° |
| 2026-05-05 13:59 | 31.32622 | 27.22602 | 36170 ft | 435 kts | 313° |
| 2026-05-05 14:00 | 31.39027 | 27.16805 | 36164 ft | 439 kts | 322° |
| 2026-05-05 14:00 | 31.45035 | 27.12376 | 36150 ft | 439 kts | 323° |
| 2026-05-05 14:01 | 31.50200 | 27.08570 | 36146 ft | 438 kts | 323° |
| 2026-05-05 14:01 | 31.55330 | 27.04746 | 36126 ft | 437 kts | 323° |
| 2026-05-05 14:02 | 31.60457 | 27.00899 | 36120 ft | 438 kts | 322° |
| 2026-05-05 14:02 | 31.65581 | 26.97044 | 36122 ft | 438 kts | 322° |
| 2026-05-05 14:03 | 31.70708 | 26.93183 | 36120 ft | 437 kts | 323° |
| 2026-05-05 14:03 | 31.75824 | 26.89326 | 36120 ft | 437 kts | 323° |
| 2026-05-05 14:04 | 31.80930 | 26.85472 | 36117 ft | 436 kts | 323° |
| 2026-05-05 14:04 | 31.86024 | 26.81622 | 36117 ft | 435 kts | 323° |
| 2026-05-05 14:05 | 31.91088 | 26.77789 | 36118 ft | 435 kts | 323° |
| 2026-05-05 14:05 | 31.96215 | 26.73902 | 36123 ft | 435 kts | 323° |
| 2026-05-05 14:06 | 32.01265 | 26.70070 | 36115 ft | 435 kts | 323° |
| 2026-05-05 14:06 | 32.06399 | 26.66169 | 36115 ft | 435 kts | 323° |
| 2026-05-05 14:07 | 32.11360 | 26.62394 | 36116 ft | 435 kts | 323° |
| 2026-05-05 14:07 | 32.16448 | 26.58517 | 36116 ft | 435 kts | 323° |
| 2026-05-05 14:08 | 32.21523 | 26.54645 | 36117 ft | 435 kts | 323° |
| 2026-05-05 14:08 | 32.26607 | 26.50761 | 36122 ft | 435 kts | 323° |
| 2026-05-05 14:09 | 32.31672 | 26.46886 | 36115 ft | 434 kts | 323° |
| 2026-05-05 14:09 | 32.36746 | 26.42999 | 36111 ft | 434 kts | 323° |
| 2026-05-05 14:10 | 32.41817 | 26.39109 | 36112 ft | 434 kts | 323° |
| 2026-05-05 14:10 | 32.46870 | 26.35227 | 36113 ft | 433 kts | 323° |
| 2026-05-05 14:11 | 32.51914 | 26.31348 | 36113 ft | 433 kts | 323° |
| 2026-05-05 14:11 | 32.56965 | 26.27457 | 36110 ft | 433 kts | 323° |
| 2026-05-05 14:12 | 32.62029 | 26.23551 | 36111 ft | 433 kts | 323° |
| 2026-05-05 14:12 | 32.67074 | 26.19655 | 36115 ft | 433 kts | 323° |
| 2026-05-05 14:13 | 32.72119 | 26.15752 | 36111 ft | 434 kts | 323° |
| 2026-05-05 14:13 | 32.77199 | 26.11818 | 36111 ft | 435 kts | 323° |
| 2026-05-05 14:14 | 32.82221 | 26.07923 | 36113 ft | 434 kts | 323° |
| 2026-05-05 14:14 | 32.87270 | 26.04003 | 36108 ft | 433 kts | 323° |
| 2026-05-05 14:15 | 32.92320 | 26.00075 | 36112 ft | 434 kts | 323° |
| 2026-05-05 14:15 | 32.97374 | 25.96139 | 36110 ft | 435 kts | 323° |
| 2026-05-05 14:16 | 33.02449 | 25.92181 | 36111 ft | 435 kts | 323° |
| 2026-05-05 14:16 | 33.07510 | 25.88229 | 36109 ft | 435 kts | 323° |
| 2026-05-05 14:17 | 33.12568 | 25.84273 | 36106 ft | 435 kts | 323° |
| 2026-05-05 14:17 | 33.17636 | 25.80305 | 36109 ft | 435 kts | 323° |
| 2026-05-05 14:18 | 33.22682 | 25.76347 | 36107 ft | 435 kts | 323° |
| 2026-05-05 14:18 | 33.27716 | 25.72394 | 36108 ft | 435 kts | 323° |
| 2026-05-05 14:19 | 33.32794 | 25.68400 | 36112 ft | 435 kts | 324° |
| 2026-05-05 14:19 | 33.37824 | 25.64439 | 36106 ft | 435 kts | 324° |
| 2026-05-05 14:20 | 33.42864 | 25.60464 | 36112 ft | 434 kts | 324° |
| 2026-05-05 14:20 | 33.47910 | 25.56479 | 36109 ft | 434 kts | 324° |
| 2026-05-05 14:21 | 33.52959 | 25.52486 | 36107 ft | 434 kts | 324° |
| 2026-05-05 14:21 | 33.58002 | 25.48492 | 36110 ft | 434 kts | 324° |
| 2026-05-05 14:22 | 33.63048 | 25.44489 | 36099 ft | 434 kts | 324° |
| 2026-05-05 14:22 | 33.68049 | 25.40517 | 36106 ft | 434 kts | 324° |
| 2026-05-05 14:23 | 33.73118 | 25.36485 | 36104 ft | 434 kts | 324° |
| 2026-05-05 14:23 | 33.78114 | 25.32505 | 36101 ft | 434 kts | 324° |
| 2026-05-05 14:24 | 33.83144 | 25.28493 | 36103 ft | 434 kts | 324° |
| 2026-05-05 14:24 | 33.88180 | 25.24469 | 36106 ft | 433 kts | 324° |
| 2026-05-05 14:25 | 33.93188 | 25.20461 | 36109 ft | 433 kts | 324° |
| 2026-05-05 14:25 | 33.98198 | 25.16447 | 36090 ft | 433 kts | 324° |
| 2026-05-05 14:26 | 34.03186 | 25.12362 | 36108 ft | 433 kts | 323° |
| 2026-05-05 14:26 | 34.08093 | 25.08147 | 36109 ft | 433 kts | 322° |
| 2026-05-05 14:27 | 34.12990 | 25.03917 | 36113 ft | 433 kts | 322° |
| 2026-05-05 14:27 | 34.17065 | 25.00407 | 36096 ft | 433 kts | 323° |
| 2026-05-05 14:28 | 34.21970 | 24.96191 | 36093 ft | 433 kts | 323° |
| 2026-05-05 14:28 | 34.26877 | 24.91971 | 36117 ft | 433 kts | 323° |
| 2026-05-05 14:29 | 34.31789 | 24.87743 | 36099 ft | 433 kts | 323° |
| 2026-05-05 14:29 | 34.36692 | 24.83515 | 36096 ft | 433 kts | 323° |
| 2026-05-05 14:30 | 34.41601 | 24.79275 | 36099 ft | 433 kts | 323° |
| 2026-05-05 14:30 | 34.46476 | 24.75060 | 36097 ft | 433 kts | 323° |
| 2026-05-05 14:31 | 34.51401 | 24.70794 | 36097 ft | 433 kts | 323° |
| 2026-05-05 14:31 | 34.56300 | 24.66544 | 36099 ft | 433 kts | 323° |
| 2026-05-05 14:32 | 34.61155 | 24.62327 | 36098 ft | 432 kts | 323° |
| 2026-05-05 14:32 | 34.66045 | 24.58073 | 36098 ft | 432 kts | 323° |
| 2026-05-05 14:33 | 34.70953 | 24.53795 | 36094 ft | 432 kts | 323° |
| 2026-05-05 14:33 | 34.75818 | 24.49550 | 36095 ft | 433 kts | 323° |
| 2026-05-05 14:34 | 34.80697 | 24.45287 | 36097 ft | 433 kts | 323° |
| 2026-05-05 14:34 | 34.85582 | 24.41011 | 36100 ft | 433 kts | 323° |
| 2026-05-05 14:35 | 34.90474 | 24.36724 | 36097 ft | 433 kts | 323° |
| 2026-05-05 14:35 | 34.95362 | 24.32433 | 36098 ft | 433 kts | 323° |
| 2026-05-05 14:36 | 35.00262 | 24.28126 | 36097 ft | 433 kts | 323° |
| 2026-05-05 14:36 | 35.05147 | 24.23825 | 36097 ft | 433 kts | 322° |
| 2026-05-05 14:37 | 35.10026 | 24.19522 | 36102 ft | 432 kts | 322° |
| 2026-05-05 14:37 | 35.14872 | 24.15242 | 36102 ft | 433 kts | 322° |
| 2026-05-05 14:38 | 35.19746 | 24.10932 | 36102 ft | 433 kts | 322° |
| 2026-05-05 14:38 | 35.24623 | 24.06611 | 36095 ft | 433 kts | 322° |
| 2026-05-05 14:39 | 35.29492 | 24.02292 | 36087 ft | 432 kts | 322° |
| 2026-05-05 14:39 | 35.34366 | 23.97962 | 36096 ft | 433 kts | 322° |
| 2026-05-05 14:40 | 35.39243 | 23.93623 | 36088 ft | 433 kts | 322° |
| 2026-05-05 14:40 | 35.44101 | 23.89293 | 36087 ft | 432 kts | 322° |
| 2026-05-05 14:41 | 35.48949 | 23.84966 | 36099 ft | 431 kts | 322° |
| 2026-05-05 14:41 | 35.53807 | 23.80623 | 36100 ft | 431 kts | 322° |
| 2026-05-05 14:42 | 35.58661 | 23.76277 | 36106 ft | 432 kts | 322° |
| 2026-05-05 14:42 | 35.63514 | 23.71926 | 36118 ft | 432 kts | 322° |
| 2026-05-05 14:43 | 35.68363 | 23.67572 | 36104 ft | 432 kts | 322° |
| 2026-05-05 14:43 | 35.73209 | 23.63213 | 36106 ft | 431 kts | 322° |
| 2026-05-05 14:44 | 35.78038 | 23.58863 | 36106 ft | 431 kts | 322° |
| 2026-05-05 14:44 | 35.82886 | 23.54489 | 36108 ft | 431 kts | 322° |
| 2026-05-05 14:45 | 35.87725 | 23.50116 | 36102 ft | 432 kts | 322° |
| 2026-05-05 14:45 | 35.92555 | 23.45745 | 36099 ft | 431 kts | 322° |
| 2026-05-05 14:46 | 35.97388 | 23.41365 | 36099 ft | 431 kts | 322° |
| 2026-05-05 14:46 | 36.02214 | 23.36984 | 36100 ft | 430 kts | 322° |
| 2026-05-05 14:47 | 36.07007 | 23.32625 | 36101 ft | 430 kts | 322° |
| 2026-05-05 14:47 | 36.11830 | 23.28234 | 36110 ft | 430 kts | 322° |
| 2026-05-05 14:48 | 36.16649 | 23.23838 | 36114 ft | 431 kts | 322° |
| 2026-05-05 14:48 | 36.21477 | 23.19428 | 36123 ft | 431 kts | 322° |
| 2026-05-05 14:49 | 36.26333 | 23.14985 | 36128 ft | 431 kts | 322° |
| 2026-05-05 14:49 | 36.31114 | 23.10604 | 36129 ft | 430 kts | 322° |
| 2026-05-05 14:50 | 36.35928 | 23.06186 | 36134 ft | 430 kts | 322° |
| 2026-05-05 14:50 | 36.40734 | 23.01768 | 36124 ft | 430 kts | 322° |
| 2026-05-05 14:51 | 36.45527 | 22.97355 | 36116 ft | 430 kts | 322° |
| 2026-05-05 14:51 | 36.50327 | 22.92929 | 36113 ft | 430 kts | 322° |
| 2026-05-05 14:52 | 36.55133 | 22.88490 | 36097 ft | 430 kts | 322° |
| 2026-05-05 14:52 | 36.59937 | 22.84047 | 36092 ft | 430 kts | 322° |
| 2026-05-05 14:53 | 36.64731 | 22.79604 | 36088 ft | 429 kts | 322° |
| 2026-05-05 14:53 | 36.69512 | 22.75167 | 36086 ft | 428 kts | 322° |
| 2026-05-05 14:54 | 36.74297 | 22.70720 | 36085 ft | 428 kts | 322° |
| 2026-05-05 14:54 | 36.79060 | 22.66286 | 36090 ft | 428 kts | 322° |
| 2026-05-05 14:55 | 36.83834 | 22.61834 | 36084 ft | 428 kts | 322° |
| 2026-05-05 14:55 | 36.88576 | 22.57405 | 36088 ft | 427 kts | 322° |
| 2026-05-05 14:56 | 36.93325 | 22.52963 | 36083 ft | 427 kts | 322° |
| 2026-05-05 14:56 | 36.98078 | 22.48510 | 36089 ft | 427 kts | 322° |
| 2026-05-05 14:57 | 37.02848 | 22.44034 | 36092 ft | 428 kts | 322° |
| 2026-05-05 14:57 | 37.07637 | 22.39532 | 36085 ft | 428 kts | 321° |
| 2026-05-05 14:58 | 37.12361 | 22.35085 | 36089 ft | 428 kts | 322° |
| 2026-05-05 14:58 | 37.17127 | 22.30591 | 36086 ft | 428 kts | 321° |
| 2026-05-05 14:59 | 37.21888 | 22.26094 | 36083 ft | 428 kts | 321° |
| 2026-05-05 14:59 | 37.26646 | 22.21593 | 36087 ft | 428 kts | 321° |
| 2026-05-05 15:00 | 37.30593 | 22.17854 | 36088 ft | 428 kts | 321° |
| 2026-05-05 15:00 | 37.36137 | 22.12592 | 36093 ft | 427 kts | 321° |
| 2026-05-05 15:01 | 37.40881 | 22.08083 | 36112 ft | 428 kts | 321° |
| 2026-05-05 15:01 | 37.45646 | 22.03545 | 36108 ft | 429 kts | 321° |
| 2026-05-05 15:02 | 37.50371 | 21.99039 | 36109 ft | 429 kts | 321° |
| 2026-05-05 15:02 | 37.55126 | 21.94497 | 36112 ft | 429 kts | 322° |
| 2026-05-05 15:03 | 37.59908 | 21.89922 | 36109 ft | 428 kts | 321° |
| 2026-05-05 15:03 | 37.64611 | 21.85414 | 36116 ft | 427 kts | 321° |
| 2026-05-05 15:04 | 37.69346 | 21.80868 | 36114 ft | 428 kts | 321° |
| 2026-05-05 15:04 | 37.74066 | 21.76329 | 36110 ft | 427 kts | 322° |
| 2026-05-05 15:05 | 37.81164 | 21.69491 | 36096 ft | 427 kts | 322° |
| 2026-05-05 15:06 | 37.85875 | 21.64942 | 36114 ft | 427 kts | 322° |
| 2026-05-05 15:06 | 37.90599 | 21.60371 | 36107 ft | 427 kts | 322° |
| 2026-05-05 15:07 | 37.95314 | 21.55803 | 36115 ft | 426 kts | 322° |
| 2026-05-05 15:07 | 38.00009 | 21.51248 | 36113 ft | 426 kts | 322° |
| 2026-05-05 15:08 | 38.04719 | 21.46670 | 36111 ft | 426 kts | 321° |
| 2026-05-05 15:08 | 38.09395 | 21.42117 | 36100 ft | 426 kts | 321° |
| 2026-05-05 15:09 | 38.14091 | 21.37538 | 36110 ft | 425 kts | 321° |
| 2026-05-05 15:09 | 38.18785 | 21.32953 | 36101 ft | 426 kts | 321° |
| 2026-05-05 15:10 | 38.23469 | 21.28370 | 36101 ft | 426 kts | 321° |
| 2026-05-05 15:10 | 38.28205 | 21.23728 | 36102 ft | 426 kts | 321° |
| 2026-05-05 15:11 | 38.32882 | 21.19137 | 36108 ft | 425 kts | 321° |
| 2026-05-05 15:11 | 38.37540 | 21.14555 | 36103 ft | 425 kts | 321° |
| 2026-05-05 15:12 | 38.42222 | 21.09943 | 36100 ft | 425 kts | 321° |
| 2026-05-05 15:12 | 38.46900 | 21.05328 | 36104 ft | 425 kts | 321° |
| 2026-05-05 15:13 | 38.51555 | 21.00727 | 36110 ft | 424 kts | 321° |
| 2026-05-05 15:13 | 38.56228 | 20.96100 | 36109 ft | 425 kts | 321° |
| 2026-05-05 15:14 | 38.60881 | 20.91486 | 36114 ft | 425 kts | 321° |
| 2026-05-05 15:14 | 38.65575 | 20.86824 | 36104 ft | 426 kts | 321° |
| 2026-05-05 15:15 | 38.70217 | 20.82204 | 36120 ft | 425 kts | 321° |
| 2026-05-05 15:15 | 38.74907 | 20.77530 | 36128 ft | 425 kts | 321° |
| 2026-05-05 15:16 | 38.79550 | 20.72894 | 36129 ft | 425 kts | 321° |
| 2026-05-05 15:16 | 38.83453 | 20.68990 | 36132 ft | 425 kts | 321° |
| 2026-05-05 15:17 | 38.88876 | 20.63558 | 36130 ft | 426 kts | 321° |
| 2026-05-05 15:17 | 38.93554 | 20.58863 | 36128 ft | 427 kts | 321° |
| 2026-05-05 15:18 | 38.97475 | 20.54922 | 36127 ft | 427 kts | 321° |
| 2026-05-05 15:18 | 39.02147 | 20.50217 | 36122 ft | 427 kts | 321° |
| 2026-05-05 15:19 | 39.06826 | 20.45499 | 36121 ft | 428 kts | 321° |
| 2026-05-05 15:19 | 39.11516 | 20.40760 | 36118 ft | 428 kts | 320° |
| 2026-05-05 15:20 | 39.16192 | 20.36028 | 36118 ft | 429 kts | 320° |
| 2026-05-05 15:20 | 39.20885 | 20.31270 | 36120 ft | 429 kts | 320° |
| 2026-05-05 15:21 | 39.25558 | 20.26524 | 36118 ft | 428 kts | 320° |
| 2026-05-05 15:21 | 39.30244 | 20.21756 | 36120 ft | 429 kts | 320° |
| 2026-05-05 15:22 | 39.34940 | 20.16970 | 36120 ft | 430 kts | 320° |
| 2026-05-05 15:22 | 39.39639 | 20.12172 | 36121 ft | 430 kts | 320° |
| 2026-05-05 15:23 | 39.44304 | 20.07339 | 36129 ft | 430 kts | 317° |
| 2026-05-05 15:23 | 39.48555 | 20.01913 | 36135 ft | 430 kts | 313° |
| 2026-05-05 15:24 | 39.52706 | 19.96388 | 36129 ft | 430 kts | 313° |
| 2026-05-05 15:24 | 39.56883 | 19.90839 | 36131 ft | 430 kts | 313° |
| 2026-05-05 15:25 | 39.61065 | 19.85293 | 36134 ft | 431 kts | 313° |
| 2026-05-05 15:25 | 39.65264 | 19.79722 | 36131 ft | 431 kts | 313° |
| 2026-05-05 15:26 | 39.69447 | 19.74161 | 36127 ft | 430 kts | 313° |
| 2026-05-05 15:26 | 39.73621 | 19.68603 | 36119 ft | 430 kts | 313° |
| 2026-05-05 15:27 | 39.77794 | 19.63035 | 36120 ft | 430 kts | 313° |
| 2026-05-05 15:27 | 39.81972 | 19.57452 | 36119 ft | 431 kts | 313° |
| 2026-05-05 15:28 | 39.86154 | 19.51851 | 36114 ft | 430 kts | 313° |
| 2026-05-05 15:28 | 39.90319 | 19.46262 | 36115 ft | 430 kts | 313° |
| 2026-05-05 15:29 | 39.94480 | 19.40670 | 36110 ft | 431 kts | 313° |
| 2026-05-05 15:29 | 39.98648 | 19.35056 | 36105 ft | 430 kts | 312° |
| 2026-05-05 15:30 | 40.02797 | 19.29458 | 36106 ft | 430 kts | 312° |
| 2026-05-05 15:30 | 40.06936 | 19.23864 | 36105 ft | 430 kts | 312° |
| 2026-05-05 15:31 | 40.11088 | 19.18240 | 36104 ft | 431 kts | 312° |
| 2026-05-05 15:31 | 40.15275 | 19.12559 | 36100 ft | 431 kts | 312° |
| 2026-05-05 15:32 | 40.19417 | 19.06928 | 36096 ft | 431 kts | 312° |
| 2026-05-05 15:32 | 40.23596 | 19.01263 | 36095 ft | 432 kts | 314° |
| 2026-05-05 15:33 | 40.28197 | 18.96180 | 36101 ft | 434 kts | 320° |
| 2026-05-05 15:33 | 40.32973 | 18.91407 | 36093 ft | 434 kts | 320° |
| 2026-05-05 15:34 | 40.37780 | 18.86586 | 36091 ft | 434 kts | 320° |
| 2026-05-05 15:34 | 40.42554 | 18.81763 | 36091 ft | 434 kts | 320° |
| 2026-05-05 15:35 | 40.47348 | 18.76899 | 36086 ft | 434 kts | 320° |
| 2026-05-05 15:35 | 40.52119 | 18.72048 | 36090 ft | 434 kts | 320° |
| 2026-05-05 15:36 | 40.56911 | 18.67166 | 36085 ft | 434 kts | 320° |
| 2026-05-05 15:36 | 40.61673 | 18.62305 | 36085 ft | 434 kts | 319° |
| 2026-05-05 15:37 | 40.66443 | 18.57429 | 36080 ft | 434 kts | 319° |
| 2026-05-05 15:37 | 40.71208 | 18.52548 | 36079 ft | 434 kts | 319° |
| 2026-05-05 15:38 | 40.75949 | 18.47682 | 36078 ft | 434 kts | 319° |
| 2026-05-05 15:38 | 40.80704 | 18.42794 | 36075 ft | 434 kts | 319° |
| 2026-05-05 15:39 | 40.85476 | 18.37878 | 36073 ft | 434 kts | 319° |
| 2026-05-05 15:39 | 40.90227 | 18.32975 | 36066 ft | 434 kts | 319° |
| 2026-05-05 15:40 | 40.94982 | 18.28059 | 36062 ft | 434 kts | 319° |
| 2026-05-05 15:40 | 40.99737 | 18.23133 | 36063 ft | 434 kts | 319° |
| 2026-05-05 15:41 | 41.04457 | 18.18234 | 36061 ft | 434 kts | 319° |
| 2026-05-05 15:41 | 41.09233 | 18.13268 | 36060 ft | 434 kts | 319° |
| 2026-05-05 15:42 | 41.13973 | 18.08329 | 36060 ft | 434 kts | 319° |
| 2026-05-05 15:42 | 41.18724 | 18.03370 | 36058 ft | 434 kts | 318° |
| 2026-05-05 15:43 | 41.23469 | 17.98408 | 36056 ft | 434 kts | 318° |
| 2026-05-05 15:43 | 41.28188 | 17.93464 | 36051 ft | 434 kts | 318° |
| 2026-05-05 15:44 | 41.32955 | 17.88460 | 36047 ft | 434 kts | 318° |
| 2026-05-05 15:44 | 41.37693 | 17.83477 | 36051 ft | 434 kts | 318° |
| 2026-05-05 15:45 | 41.42405 | 17.78511 | 36045 ft | 434 kts | 317° |
| 2026-05-05 15:45 | 41.47131 | 17.73522 | 36046 ft | 434 kts | 317° |
| 2026-05-05 15:46 | 41.51869 | 17.68509 | 36045 ft | 435 kts | 317° |
| 2026-05-05 15:46 | 41.56609 | 17.63485 | 36041 ft | 435 kts | 317° |
| 2026-05-05 15:47 | 41.61351 | 17.58450 | 36045 ft | 435 kts | 317° |
| 2026-05-05 15:47 | 41.66095 | 17.53403 | 36041 ft | 435 kts | 317° |
| 2026-05-05 15:48 | 41.70824 | 17.48361 | 36040 ft | 436 kts | 317° |
| 2026-05-05 15:48 | 41.75568 | 17.43293 | 36040 ft | 437 kts | 317° |
| 2026-05-05 15:49 | 41.80334 | 17.38192 | 36038 ft | 438 kts | 317° |
| 2026-05-05 15:49 | 41.85086 | 17.33096 | 36039 ft | 439 kts | 317° |
| 2026-05-05 15:50 | 41.89848 | 17.27979 | 36035 ft | 440 kts | 317° |
| 2026-05-05 15:50 | 41.94443 | 17.22572 | 36038 ft | 437 kts | 310° |
| 2026-05-05 15:51 | 41.98580 | 17.16640 | 36040 ft | 438 kts | 309° |
| 2026-05-05 15:51 | 42.02745 | 17.10623 | 36033 ft | 439 kts | 309° |
| 2026-05-05 15:52 | 42.06924 | 17.04602 | 36029 ft | 439 kts | 309° |
| 2026-05-05 15:52 | 42.11086 | 16.98614 | 36032 ft | 439 kts | 309° |
| 2026-05-05 15:53 | 42.15250 | 16.92618 | 36034 ft | 441 kts | 309° |
| 2026-05-05 15:53 | 42.19445 | 16.86564 | 36031 ft | 442 kts | 309° |
| 2026-05-05 15:54 | 42.23636 | 16.80505 | 36029 ft | 443 kts | 309° |
| 2026-05-05 15:54 | 42.27850 | 16.74399 | 36025 ft | 443 kts | 309° |
| 2026-05-05 15:55 | 42.32060 | 16.68285 | 36025 ft | 444 kts | 309° |
| 2026-05-05 15:55 | 42.36257 | 16.62177 | 36024 ft | 445 kts | 309° |
| 2026-05-05 15:56 | 42.40407 | 16.56125 | 36022 ft | 444 kts | 309° |
| 2026-05-05 15:56 | 42.44599 | 16.49999 | 36022 ft | 444 kts | 309° |
| 2026-05-05 15:57 | 42.48822 | 16.43814 | 36024 ft | 445 kts | 309° |
| 2026-05-05 15:57 | 42.52995 | 16.37689 | 36023 ft | 446 kts | 309° |
| 2026-05-05 15:58 | 42.57223 | 16.31471 | 36020 ft | 446 kts | 309° |
| 2026-05-05 15:58 | 42.61423 | 16.25281 | 36019 ft | 446 kts | 309° |
| 2026-05-05 15:59 | 42.65630 | 16.19067 | 36021 ft | 446 kts | 309° |
| 2026-05-05 15:59 | 42.69816 | 16.12869 | 36021 ft | 447 kts | 309° |
| 2026-05-05 16:00 | 42.74009 | 16.06649 | 36019 ft | 447 kts | 309° |
| 2026-05-05 16:00 | 42.78230 | 16.00371 | 36020 ft | 448 kts | 309° |
| 2026-05-05 16:01 | 42.82412 | 15.94143 | 36022 ft | 448 kts | 309° |
| 2026-05-05 16:01 | 42.86626 | 15.87851 | 36003 ft | 448 kts | 309° |
| 2026-05-05 16:02 | 42.90836 | 15.81551 | 36023 ft | 448 kts | 309° |
| 2026-05-05 16:02 | 42.95020 | 15.75276 | 36023 ft | 449 kts | 309° |
| 2026-05-05 16:03 | 42.99231 | 15.68947 | 36025 ft | 449 kts | 309° |
| 2026-05-05 16:03 | 43.03413 | 15.62648 | 36026 ft | 450 kts | 309° |
| 2026-05-05 16:04 | 43.07600 | 15.56328 | 36008 ft | 449 kts | 309° |
| 2026-05-05 16:04 | 43.11112 | 15.51015 | 36017 ft | 449 kts | 309° |
| 2026-05-05 16:05 | 43.15986 | 15.43626 | 36015 ft | 450 kts | 309° |
| 2026-05-05 16:05 | 43.19504 | 15.38282 | 36015 ft | 450 kts | 309° |
| 2026-05-05 16:06 | 43.23675 | 15.31931 | 36022 ft | 450 kts | 309° |
| 2026-05-05 16:06 | 43.27874 | 15.25525 | 36019 ft | 450 kts | 309° |
| 2026-05-05 16:07 | 43.32057 | 15.19128 | 36024 ft | 450 kts | 309° |
| 2026-05-05 16:07 | 43.36247 | 15.12706 | 36018 ft | 450 kts | 309° |
| 2026-05-05 16:08 | 43.40416 | 15.06302 | 36023 ft | 449 kts | 308° |
| 2026-05-05 16:08 | 43.44593 | 14.99872 | 36012 ft | 449 kts | 308° |
| 2026-05-05 16:09 | 43.48727 | 14.93493 | 36012 ft | 450 kts | 308° |
| 2026-05-05 16:09 | 43.52884 | 14.87065 | 36010 ft | 450 kts | 308° |
| 2026-05-05 16:10 | 43.57057 | 14.80596 | 36006 ft | 451 kts | 308° |
| 2026-05-05 16:10 | 43.61206 | 14.74152 | 36009 ft | 451 kts | 308° |
| 2026-05-05 16:11 | 43.65367 | 14.67674 | 36004 ft | 452 kts | 308° |
| 2026-05-05 16:12 | 43.73702 | 14.54653 | 36007 ft | 452 kts | 308° |
| 2026-05-05 16:13 | 43.84033 | 14.38431 | 36000 ft | 452 kts | 308° |
| 2026-05-05 16:13 | 43.88204 | 14.31855 | 35999 ft | 452 kts | 308° |
| 2026-05-05 16:14 | 43.96510 | 14.18714 | 35995 ft | 452 kts | 308° |
| 2026-05-05 16:15 | 44.04785 | 14.05563 | 35991 ft | 453 kts | 308° |
| 2026-05-05 16:16 | 44.13063 | 13.92346 | 35989 ft | 454 kts | 308° |
| 2026-05-05 16:17 | 44.19302 | 13.82343 | 35986 ft | 454 kts | 308° |
| 2026-05-05 16:18 | 44.25483 | 13.72399 | 35983 ft | 455 kts | 308° |
| 2026-05-05 16:19 | 44.31666 | 13.62416 | 35985 ft | 456 kts | 307° |
| 2026-05-05 16:19 | 44.37909 | 13.52302 | 35982 ft | 455 kts | 307° |
| 2026-05-05 16:20 | 44.44604 | 13.37570 | 35981 ft | 449 kts | 292° |
| 2026-05-05 16:22 | 44.51139 | 13.17674 | 37079 ft | 446 kts | 292° |
| 2026-05-05 16:22 | 44.53732 | 13.09820 | 37688 ft | 445 kts | 292° |
| 2026-05-05 16:23 | 44.56334 | 13.01931 | 37928 ft | 446 kts | 292° |
| 2026-05-05 16:23 | 44.60228 | 12.90087 | 37957 ft | 446 kts | 292° |
| 2026-05-05 16:24 | 44.62816 | 12.82188 | 37956 ft | 444 kts | 292° |
| 2026-05-05 16:25 | 44.66681 | 12.70337 | 37972 ft | 444 kts | 292° |
| 2026-05-05 16:25 | 44.70524 | 12.58503 | 37975 ft | 444 kts | 292° |
| 2026-05-05 16:26 | 44.75634 | 12.42685 | 37982 ft | 444 kts | 292° |
| 2026-05-05 16:27 | 44.78185 | 12.34754 | 37982 ft | 444 kts | 292° |
| 2026-05-05 16:27 | 44.80730 | 12.26815 | 37987 ft | 444 kts | 291° |
| 2026-05-05 16:28 | 44.83263 | 12.18891 | 37984 ft | 444 kts | 291° |
| 2026-05-05 16:28 | 44.85793 | 12.10949 | 37990 ft | 445 kts | 291° |
| 2026-05-05 16:29 | 44.88317 | 12.03004 | 37986 ft | 445 kts | 291° |
| 2026-05-05 16:29 | 44.90851 | 11.95004 | 37992 ft | 445 kts | 291° |
| 2026-05-05 16:30 | 44.93368 | 11.87034 | 37989 ft | 445 kts | 291° |
| 2026-05-05 16:30 | 44.95886 | 11.79034 | 37992 ft | 445 kts | 291° |
| 2026-05-05 16:31 | 44.98393 | 11.71043 | 37987 ft | 446 kts | 291° |
| 2026-05-05 16:31 | 45.00900 | 11.63031 | 37995 ft | 446 kts | 291° |
| 2026-05-05 16:32 | 45.03405 | 11.54997 | 37999 ft | 446 kts | 291° |
| 2026-05-05 16:32 | 45.05898 | 11.46979 | 37995 ft | 446 kts | 291° |
| 2026-05-05 16:33 | 45.08385 | 11.38952 | 37962 ft | 446 kts | 291° |
| 2026-05-05 16:33 | 45.10879 | 11.30879 | 37954 ft | 447 kts | 291° |
| 2026-05-05 16:34 | 45.13363 | 11.22815 | 37947 ft | 447 kts | 291° |
| 2026-05-05 16:34 | 45.15844 | 11.14731 | 37944 ft | 447 kts | 291° |
| 2026-05-05 16:35 | 45.18318 | 11.06648 | 37936 ft | 447 kts | 291° |
| 2026-05-05 16:35 | 45.20787 | 10.98555 | 37933 ft | 447 kts | 291° |
| 2026-05-05 16:36 | 45.23246 | 10.90468 | 37943 ft | 447 kts | 290° |
| 2026-05-05 16:36 | 45.25706 | 10.82351 | 37969 ft | 447 kts | 290° |
| 2026-05-05 16:37 | 45.28154 | 10.74247 | 37969 ft | 448 kts | 290° |
| 2026-05-05 16:37 | 45.30593 | 10.66148 | 37978 ft | 449 kts | 290° |
| 2026-05-05 16:38 | 45.33056 | 10.57944 | 37965 ft | 448 kts | 290° |
| 2026-05-05 16:38 | 45.35491 | 10.49809 | 37974 ft | 448 kts | 290° |
| 2026-05-05 16:39 | 45.37921 | 10.41661 | 37965 ft | 448 kts | 290° |
| 2026-05-05 16:39 | 45.40352 | 10.33482 | 37972 ft | 449 kts | 290° |
| 2026-05-05 16:40 | 45.42776 | 10.25300 | 37968 ft | 449 kts | 290° |
| 2026-05-05 16:40 | 45.45197 | 10.17104 | 37966 ft | 449 kts | 290° |
| 2026-05-05 16:41 | 45.47616 | 10.08887 | 37972 ft | 450 kts | 290° |
| 2026-05-05 16:41 | 45.50014 | 10.00715 | 37965 ft | 449 kts | 290° |
| 2026-05-05 16:42 | 45.52431 | 9.92450 | 37982 ft | 449 kts | 289° |
| 2026-05-05 16:42 | 45.54827 | 9.84231 | 37999 ft | 450 kts | 289° |
| 2026-05-05 16:43 | 45.57206 | 9.76042 | 37994 ft | 450 kts | 289° |
| 2026-05-05 16:43 | 45.59611 | 9.67735 | 37994 ft | 450 kts | 289° |
| 2026-05-05 16:44 | 45.61976 | 9.59539 | 37997 ft | 450 kts | 289° |
| 2026-05-05 16:44 | 45.63162 | 9.55419 | 38136 ft | 450 kts | 289° |
| 2026-05-05 16:44 | 45.64359 | 9.51256 | 38126 ft | 450 kts | 289° |
| 2026-05-05 16:45 | 45.66721 | 9.43013 | 38111 ft | 450 kts | 289° |
| 2026-05-05 16:45 | 45.68822 | 9.35662 | 38092 ft | 451 kts | 289° |
| 2026-05-05 16:46 | 45.70793 | 9.28744 | 38060 ft | 451 kts | 289° |
| 2026-05-05 16:46 | 45.73388 | 9.19606 | 38031 ft | 452 kts | 289° |
| 2026-05-05 16:47 | 45.75738 | 9.11301 | 37993 ft | 452 kts | 289° |
| 2026-05-05 16:47 | 45.78104 | 9.02912 | 37991 ft | 452 kts | 289° |
| 2026-05-05 16:48 | 45.80453 | 8.94553 | 37986 ft | 452 kts | 289° |
| 2026-05-05 16:48 | 45.82791 | 8.86202 | 38000 ft | 452 kts | 289° |
| 2026-05-05 16:49 | 45.84729 | 8.79262 | 37997 ft | 453 kts | 289° |
| 2026-05-05 16:49 | 45.87091 | 8.70772 | 37988 ft | 453 kts | 288° |
| 2026-05-05 16:50 | 45.89403 | 8.62445 | 37987 ft | 452 kts | 288° |
| 2026-05-05 16:50 | 45.91852 | 8.54136 | 37996 ft | 453 kts | 291° |
| 2026-05-05 16:51 | 45.94482 | 8.45892 | 37995 ft | 454 kts | 291° |
| 2026-05-05 16:51 | 45.97089 | 8.37642 | 38004 ft | 452 kts | 291° |
| 2026-05-05 16:52 | 45.99661 | 8.29367 | 38006 ft | 454 kts | 290° |
| 2026-05-05 16:52 | 46.02234 | 8.21031 | 38006 ft | 455 kts | 290° |
| 2026-05-05 16:53 | 46.04795 | 8.12718 | 37973 ft | 455 kts | 290° |
| 2026-05-05 16:53 | 46.07339 | 8.04434 | 38002 ft | 456 kts | 290° |
| 2026-05-05 16:54 | 46.09989 | 7.96124 | 37993 ft | 456 kts | 292° |
| 2026-05-05 16:54 | 46.12768 | 7.87894 | 37964 ft | 456 kts | 292° |
| 2026-05-05 16:55 | 46.15556 | 7.79622 | 37969 ft | 456 kts | 292° |
| 2026-05-05 16:55 | 46.18306 | 7.71370 | 37942 ft | 456 kts | 292° |
| 2026-05-05 16:56 | 46.21026 | 7.63143 | 37926 ft | 455 kts | 292° |
| 2026-05-05 16:56 | 46.23728 | 7.54935 | 37912 ft | 455 kts | 292° |
| 2026-05-05 16:57 | 46.26458 | 7.46622 | 37915 ft | 455 kts | 292° |
| 2026-05-05 16:57 | 46.29158 | 7.38378 | 37910 ft | 454 kts | 291° |
| 2026-05-05 16:58 | 46.31852 | 7.30122 | 37914 ft | 454 kts | 291° |
| 2026-05-05 16:58 | 46.34525 | 7.21906 | 37912 ft | 454 kts | 291° |
| 2026-05-05 16:59 | 46.37207 | 7.13634 | 37914 ft | 454 kts | 291° |
| 2026-05-05 16:59 | 46.39884 | 7.05356 | 37902 ft | 453 kts | 291° |
| 2026-05-05 17:00 | 46.42525 | 6.97157 | 37907 ft | 453 kts | 291° |
| 2026-05-05 17:00 | 46.45182 | 6.88884 | 37904 ft | 453 kts | 291° |
| 2026-05-05 17:01 | 46.47838 | 6.80588 | 37916 ft | 453 kts | 291° |
| 2026-05-05 17:01 | 46.50489 | 6.72282 | 37886 ft | 453 kts | 290° |
| 2026-05-05 17:02 | 46.53131 | 6.63975 | 37888 ft | 454 kts | 290° |
| 2026-05-05 17:02 | 46.55771 | 6.55646 | 37891 ft | 455 kts | 290° |
| 2026-05-05 17:03 | 46.58420 | 6.47263 | 37893 ft | 455 kts | 290° |
| 2026-05-05 17:03 | 46.61048 | 6.38919 | 37893 ft | 456 kts | 290° |
| 2026-05-05 17:04 | 46.63671 | 6.30566 | 37912 ft | 457 kts | 290° |
| 2026-05-05 17:04 | 46.66320 | 6.22098 | 37906 ft | 458 kts | 290° |
| 2026-05-05 17:05 | 46.68953 | 6.13656 | 37898 ft | 458 kts | 290° |
| 2026-05-05 17:05 | 46.71579 | 6.05208 | 37900 ft | 458 kts | 290° |
| 2026-05-05 17:06 | 46.74198 | 5.96753 | 37909 ft | 458 kts | 290° |
| 2026-05-05 17:06 | 46.76820 | 5.88262 | 37909 ft | 459 kts | 290° |
| 2026-05-05 17:07 | 46.79446 | 5.79743 | 37891 ft | 460 kts | 291° |
| 2026-05-05 17:07 | 46.81079 | 5.75715 | 37891 ft | 467 kts | 303° |
| 2026-05-05 17:07 | 46.83245 | 5.72147 | 37900 ft | 474 kts | 311° |
| 2026-05-05 17:08 | 46.85814 | 5.69070 | 37861 ft | 483 kts | 323° |
| 2026-05-05 17:08 | 46.88735 | 5.66614 | 37896 ft | 487 kts | 327° |
| 2026-05-05 17:08 | 46.94761 | 5.61998 | 37868 ft | 488 kts | 327° |
| 2026-05-05 17:09 | 47.00717 | 5.57258 | 37863 ft | 487 kts | 326° |
| 2026-05-05 17:09 | 47.06640 | 5.52442 | 37857 ft | 487 kts | 327° |
| 2026-05-05 17:10 | 47.12595 | 5.47646 | 37867 ft | 487 kts | 327° |
| 2026-05-05 17:10 | 47.18527 | 5.42860 | 37862 ft | 488 kts | 327° |
| 2026-05-05 17:11 | 47.24485 | 5.38032 | 37869 ft | 488 kts | 327° |
| 2026-05-05 17:11 | 47.30434 | 5.33199 | 37855 ft | 489 kts | 327° |
| 2026-05-05 17:12 | 47.36346 | 5.28386 | 37869 ft | 489 kts | 327° |
| 2026-05-05 17:12 | 47.42334 | 5.23497 | 37855 ft | 489 kts | 327° |
| 2026-05-05 17:13 | 47.48253 | 5.18650 | 37859 ft | 489 kts | 327° |
| 2026-05-05 17:13 | 47.54197 | 5.13772 | 37854 ft | 490 kts | 327° |
| 2026-05-05 17:14 | 47.60138 | 5.08689 | 37852 ft | 494 kts | 320° |
| 2026-05-05 17:14 | 47.65394 | 5.02301 | 37847 ft | 485 kts | 314° |
| 2026-05-05 17:15 | 47.70384 | 4.95665 | 37837 ft | 482 kts | 314° |
| 2026-05-05 17:15 | 47.75433 | 4.89122 | 37550 ft | 473 kts | 315° |
| 2026-05-05 17:16 | 47.77909 | 4.85981 | 36580 ft | 464 kts | 315° |
| 2026-05-05 17:16 | 47.80368 | 4.82874 | 35216 ft | 462 kts | 315° |
| 2026-05-05 17:16 | 47.82830 | 4.79761 | 33347 ft | 471 kts | 315° |
| 2026-05-05 17:16 | 47.85338 | 4.76582 | 31607 ft | 474 kts | 316° |
| 2026-05-05 17:17 | 47.87821 | 4.73435 | 30098 ft | 471 kts | 316° |
| 2026-05-05 17:17 | 47.90299 | 4.70293 | 29015 ft | 457 kts | 316° |
| 2026-05-05 17:17 | 47.92657 | 4.67302 | 28536 ft | 448 kts | 316° |
| 2026-05-05 17:17 | 47.95036 | 4.64270 | 28063 ft | 450 kts | 316° |
| 2026-05-05 17:18 | 47.97428 | 4.61212 | 27613 ft | 451 kts | 316° |
| 2026-05-05 17:18 | 47.99804 | 4.58173 | 27226 ft | 452 kts | 316° |
| 2026-05-05 17:18 | 48.02189 | 4.55121 | 26883 ft | 451 kts | 316° |
| 2026-05-05 17:18 | 48.04571 | 4.52069 | 26599 ft | 448 kts | 316° |
| 2026-05-05 17:19 | 48.06935 | 4.49039 | 26341 ft | 444 kts | 316° |
| 2026-05-05 17:19 | 48.09258 | 4.46057 | 26096 ft | 442 kts | 316° |
| 2026-05-05 17:19 | 48.11584 | 4.43066 | 25817 ft | 439 kts | 316° |
| 2026-05-05 17:19 | 48.13880 | 4.40110 | 25545 ft | 437 kts | 316° |
| 2026-05-05 17:20 | 48.16189 | 4.37103 | 25277 ft | 435 kts | 315° |
| 2026-05-05 17:20 | 48.18432 | 4.34157 | 25027 ft | 432 kts | 315° |
| 2026-05-05 17:20 | 48.20683 | 4.31196 | 24798 ft | 430 kts | 315° |
| 2026-05-05 17:20 | 48.22932 | 4.28238 | 24511 ft | 428 kts | 315° |
| 2026-05-05 17:21 | 48.25168 | 4.25294 | 24271 ft | 429 kts | 318° |
| 2026-05-05 17:21 | 48.27345 | 4.22238 | 23902 ft | 428 kts | 313° |
| 2026-05-05 17:21 | 48.29301 | 4.18877 | 23578 ft | 425 kts | 308° |
| 2026-05-05 17:22 | 48.32929 | 4.11970 | 22862 ft | 416 kts | 307° |
| 2026-05-05 17:22 | 48.34704 | 4.08590 | 22514 ft | 412 kts | 307° |
| 2026-05-05 17:22 | 48.36495 | 4.05232 | 22221 ft | 410 kts | 308° |
| 2026-05-05 17:22 | 48.38294 | 4.01901 | 21915 ft | 410 kts | 308° |
| 2026-05-05 17:23 | 48.40069 | 3.98636 | 21613 ft | 409 kts | 308° |
| 2026-05-05 17:23 | 48.41890 | 3.95296 | 21284 ft | 406 kts | 308° |
| 2026-05-05 17:23 | 48.43678 | 3.92018 | 20982 ft | 404 kts | 308° |
| 2026-05-05 17:23 | 48.45452 | 3.88760 | 20639 ft | 400 kts | 308° |
| 2026-05-05 17:24 | 48.47196 | 3.85551 | 20235 ft | 397 kts | 308° |
| 2026-05-05 17:24 | 48.48933 | 3.82351 | 19772 ft | 394 kts | 307° |
| 2026-05-05 17:24 | 48.50664 | 3.79158 | 19343 ft | 392 kts | 307° |
| 2026-05-05 17:24 | 48.52385 | 3.75979 | 18919 ft | 390 kts | 307° |
| 2026-05-05 17:25 | 48.54096 | 3.72802 | 18553 ft | 387 kts | 306° |
| 2026-05-05 17:25 | 48.55137 | 3.70635 | 18267 ft | 384 kts | 301° |
| 2026-05-05 17:25 | 48.57030 | 3.66106 | 17673 ft | 379 kts | 299° |
| 2026-05-05 17:25 | 48.58413 | 3.62742 | 17159 ft | 376 kts | 300° |
| 2026-05-05 17:26 | 48.59815 | 3.59420 | 16707 ft | 373 kts | 300° |
| 2026-05-05 17:26 | 48.61220 | 3.56137 | 16312 ft | 369 kts | 300° |
| 2026-05-05 17:26 | 48.62585 | 3.52959 | 16325 ft | 357 kts | 300° |
| 2026-05-05 17:26 | 48.63932 | 3.49815 | 16330 ft | 365 kts | 300° |
| 2026-05-05 17:27 | 48.65320 | 3.46566 | 16339 ft | 370 kts | 300° |
| 2026-05-05 17:27 | 48.66742 | 3.43234 | 16290 ft | 372 kts | 300° |
| 2026-05-05 17:27 | 48.68128 | 3.39986 | 15866 ft | 370 kts | 300° |
| 2026-05-05 17:27 | 48.69502 | 3.36765 | 15191 ft | 361 kts | 300° |
| 2026-05-05 17:28 | 48.70858 | 3.33581 | 14645 ft | 357 kts | 300° |
| 2026-05-05 17:28 | 48.72186 | 3.30458 | 14766 ft | 355 kts | 300° |
| 2026-05-05 17:28 | 48.73541 | 3.27262 | 14544 ft | 358 kts | 300° |
| 2026-05-05 17:28 | 48.74868 | 3.24133 | 13968 ft | 355 kts | 300° |
| 2026-05-05 17:29 | 48.76186 | 3.21022 | 13752 ft | 347 kts | 300° |
| 2026-05-05 17:29 | 48.77514 | 3.17879 | 13812 ft | 356 kts | 300° |
| 2026-05-05 17:29 | 48.78849 | 3.14716 | 13803 ft | 356 kts | 300° |
| 2026-05-05 17:29 | 48.80185 | 3.11552 | 13804 ft | 354 kts | 300° |
| 2026-05-05 17:30 | 48.81459 | 3.08534 | 13765 ft | 354 kts | 300° |
| 2026-05-05 17:30 | 48.82784 | 3.05388 | 13668 ft | 354 kts | 300° |
| 2026-05-05 17:30 | 48.84098 | 3.02264 | 13644 ft | 351 kts | 300° |
| 2026-05-05 17:30 | 48.85550 | 2.99272 | 13714 ft | 353 kts | 309° |
| 2026-05-05 17:31 | 48.86658 | 2.97451 | 13734 ft | 356 kts | 311° |
| 2026-05-05 17:31 | 48.88092 | 2.95210 | 13557 ft | 357 kts | 312° |
| 2026-05-05 17:31 | 48.88672 | 2.94298 | 13415 ft | 357 kts | 311° |
| 2026-05-05 17:31 | 48.90369 | 2.91569 | 12971 ft | 356 kts | 311° |
| 2026-05-05 17:32 | 48.92038 | 2.88807 | 12846 ft | 352 kts | 308° |
| 2026-05-05 17:32 | 48.93254 | 2.85634 | 12836 ft | 350 kts | 287° |
| 2026-05-05 17:32 | 48.93634 | 2.82045 | 12825 ft | 340 kts | 267° |
| 2026-05-05 17:32 | 48.93478 | 2.78540 | 12792 ft | 326 kts | 263° |
| 2026-05-05 17:33 | 48.93277 | 2.75162 | 12573 ft | 318 kts | 263° |
| 2026-05-05 17:33 | 48.93072 | 2.71790 | 12122 ft | 320 kts | 264° |
| 2026-05-05 17:33 | 48.92871 | 2.68410 | 11639 ft | 322 kts | 264° |
| 2026-05-05 17:33 | 48.92678 | 2.65016 | 11182 ft | 323 kts | 264° |
| 2026-05-05 17:34 | 48.92562 | 2.62949 | 10903 ft | 324 kts | 265° |
| 2026-05-05 17:34 | 48.92373 | 2.59509 | 10434 ft | 325 kts | 265° |
| 2026-05-05 17:34 | 48.92187 | 2.56102 | 10009 ft | 318 kts | 266° |
| 2026-05-05 17:34 | 48.92015 | 2.52960 | 9642 ft | 298 kts | 266° |
| 2026-05-05 17:35 | 48.91848 | 2.49901 | 9256 ft | 289 kts | 266° |
| 2026-05-05 17:35 | 48.91680 | 2.46835 | 8891 ft | 295 kts | 267° |
| 2026-05-05 17:35 | 48.91508 | 2.43711 | 8495 ft | 296 kts | 267° |
| 2026-05-05 17:35 | 48.91336 | 2.40641 | 8068 ft | 286 kts | 266° |
| 2026-05-05 17:36 | 48.91168 | 2.37660 | 7648 ft | 281 kts | 267° |
| 2026-05-05 17:36 | 48.91003 | 2.34710 | 7278 ft | 280 kts | 267° |
| 2026-05-05 17:36 | 48.90838 | 2.31793 | 6929 ft | 273 kts | 266° |
| 2026-05-05 17:36 | 48.90676 | 2.28939 | 6630 ft | 270 kts | 267° |
| 2026-05-05 17:37 | 48.90515 | 2.26087 | 6397 ft | 272 kts | 267° |
| 2026-05-05 17:37 | 48.90354 | 2.23274 | 6150 ft | 269 kts | 267° |
| 2026-05-05 17:37 | 48.90195 | 2.20499 | 5856 ft | 259 kts | 267° |
| 2026-05-05 17:37 | 48.90038 | 2.17766 | 5619 ft | 260 kts | 267° |
| 2026-05-05 17:38 | 48.90123 | 2.15071 | 5323 ft | 250 kts | 290° |
| 2026-05-05 17:38 | 48.90998 | 2.12903 | 5113 ft | 240 kts | 322° |
| 2026-05-05 17:38 | 48.92429 | 2.11803 | 5034 ft | 222 kts | 349° |
| 2026-05-05 17:38 | 48.93893 | 2.11493 | 5010 ft | 209 kts | 0° |
| 2026-05-05 17:39 | 48.95253 | 2.11991 | 4984 ft | 202 kts | 35° |
| 2026-05-05 17:39 | 48.96189 | 2.13600 | 5032 ft | 210 kts | 57° |
| 2026-05-05 17:39 | 48.96825 | 2.15586 | 5009 ft | 206 kts | 71° |
| 2026-05-05 17:39 | 48.97128 | 2.17638 | 4997 ft | 188 kts | 77° |
| 2026-05-05 17:40 | 48.97293 | 2.19494 | 4975 ft | 169 kts | 81° |
| 2026-05-05 17:40 | 48.97406 | 2.21206 | 4955 ft | 166 kts | 81° |
| 2026-05-05 17:40 | 48.97516 | 2.23037 | 4741 ft | 177 kts | 81° |
| 2026-05-05 17:40 | 48.97617 | 2.24903 | 4479 ft | 175 kts | 81° |
| 2026-05-05 17:41 | 48.97715 | 2.26727 | 4247 ft | 171 kts | 82° |
| 2026-05-05 17:41 | 48.97810 | 2.28514 | 3991 ft | 169 kts | 82° |
| 2026-05-05 17:41 | 48.97902 | 2.30284 | 3774 ft | 166 kts | 82° |
| 2026-05-05 17:41 | 48.97993 | 2.31995 | 3553 ft | 165 kts | 81° |
| 2026-05-05 17:42 | 48.98085 | 2.33706 | 3343 ft | 164 kts | 81° |
| 2026-05-05 17:42 | 48.98176 | 2.35443 | 3132 ft | 163 kts | 81° |
| 2026-05-05 17:42 | 48.98265 | 2.37140 | 2909 ft | 160 kts | 81° |
| 2026-05-05 17:42 | 48.98355 | 2.38817 | 2684 ft | 160 kts | 82° |
| 2026-05-05 17:43 | 48.98445 | 2.40525 | 2491 ft | 163 kts | 81° |
| 2026-05-05 17:43 | 48.98534 | 2.42224 | 2254 ft | 156 kts | 80° |
| 2026-05-05 17:43 | 48.98613 | 2.43752 | 2052 ft | 139 kts | 79° |
| 2026-05-05 17:43 | 48.98693 | 2.45223 | 1873 ft | 136 kts | 78° |
| 2026-05-05 17:44 | 48.98770 | 2.46670 | 1707 ft | 139 kts | 79° |
| 2026-05-05 17:44 | 48.98848 | 2.48133 | 1504 ft | 140 kts | 80° |
| 2026-05-05 17:44 | 48.98927 | 2.49634 | 1303 ft | 142 kts | 80° |
| 2026-05-05 17:44 | 48.99005 | 2.51106 | 1095 ft | 142 kts | 81° |
| 2026-05-05 17:45 | 48.99086 | 2.52625 | 901 ft | 146 kts | 83° |
| 2026-05-05 17:45 | 48.99162 | 2.54157 | 699 ft | 143 kts | 83° |
| 2026-05-05 17:45 | 48.99242 | 2.55658 | 487 ft | 142 kts | 83° |
| 2026-05-05 17:45 | 48.99322 | 2.57156 | 366 ft | 137 kts | 84° |
| 2026-05-05 17:46 | 48.99391 | 2.58436 | 357 ft | 101 kts | 85° |
| 2026-05-05 17:46 | 48.99427 | 2.59070 | 363 ft | 40 kts | 82° |
| 2026-05-05 17:46 | 48.99506 | 2.59380 | 366 ft | 25 kts | 64° |
| 2026-05-05 17:46 | 48.99543 | 2.59497 | 363 ft | 4 kts | 65° |
| 2026-05-05 17:47 | 48.99555 | 2.59536 | 360 ft | 4 kts | 65° |
| 2026-05-05 17:47 | 48.99567 | 2.59575 | 367 ft | 5 kts | 65° |
| 2026-05-05 17:47 | 48.99593 | 2.59647 | 367 ft | 10 kts | 47° |
| 2026-05-05 17:47 | 48.99674 | 2.59687 | 362 ft | 14 kts | 358° |
| 2026-05-05 17:48 | 48.99785 | 2.59675 | 364 ft | 16 kts | 355° |
| 2026-05-05 17:48 | 48.99900 | 2.59662 | 360 ft | 15 kts | 355° |
| 2026-05-05 17:48 | 48.99943 | 2.59657 | 364 ft | 0 kts | 356° |
| 2026-05-05 17:50 | 48.99975 | 2.59653 | 360 ft | 13 kts | 356° |
| 2026-05-05 17:50 | 49.00062 | 2.59602 | 364 ft | 14 kts | 303° |
| 2026-05-05 17:51 | 49.00072 | 2.59456 | 361 ft | 14 kts | 267° |
| 2026-05-05 17:51 | 49.00067 | 2.59308 | 364 ft | 14 kts | 264° |
| 2026-05-05 17:51 | 49.00058 | 2.59160 | 365 ft | 14 kts | 264° |
| 2026-05-05 17:51 | 49.00048 | 2.59011 | 365 ft | 14 kts | 264° |
| 2026-05-05 17:52 | 49.00040 | 2.58863 | 359 ft | 14 kts | 265° |
| 2026-05-05 17:52 | 49.00031 | 2.58713 | 359 ft | 14 kts | 265° |
| 2026-05-05 17:52 | 49.00023 | 2.58565 | 359 ft | 14 kts | 265° |
| 2026-05-05 17:52 | 49.00017 | 2.58417 | 366 ft | 14 kts | 270° |
| 2026-05-05 17:53 | 49.00069 | 2.58304 | 363 ft | 10 kts | 312° |
| 2026-05-05 17:53 | 49.00085 | 2.58204 | 364 ft | 10 kts | 272° |
| 2026-05-05 17:53 | 49.00094 | 2.58119 | 365 ft | 8 kts | 303° |
| 2026-05-05 17:53 | 49.00116 | 2.58109 | 364 ft | 2 kts | 6° |
| 2026-05-05 17:54 | 49.00128 | 2.58110 | 367 ft | 0 kts | 2° |